Select Airport:
Chesapeake Regional Airport
Last updated: 2 minutes ago
Flight conditions: VFR
Visibility: 10.0 statute miles
Sky Conditions: Clear
Wind From:
Wind speed: 0 knots (0 mph)
Temperature: 16.7°C (62.06°F)
Dew Point: 16.1°C (60.98°F)
Altimiter setting: 29.92 in-hg
WX phone: 1-757-204-4290
WX freq: 123.675 MHz
No wind, all runways available.
If at an uncontrolled airport, be sure to listen carefully to the CTAF for the runway(s) in use.
KCPK 290455Z AUTO 00000KT 10SM CLR 17/16 A2992 RMK AO2 T01670161 402910127
FOR REFERENCE USE ONLY, DATA MAY NOT BE CURRENT.
ALWAYS CHECK FOR UP TO DATE INFORMATION.